Terminal Aerodrome Forecast
Issued by NWS

Home | Current Version | Previous Version | Text Only | Print | Product List | Glossary On
Versions: 1 2 3 4 5 6 7 8 9 10 11 12 13 14 15 16 17 18 19
235
FTUS41 KPHI 230525
TAFMIV
TAF
KMIV 230525Z 2306/2406 VRB02KT P6SM BKN250
      TEMPO 2308/2311 3SM BR
     FM231100 23008KT P6SM BKN080 OVC120
     FM231600 24012KT 4SM SHRA OVC015
      TEMPO 2316/2320 3SM TSRA BKN010CB
     FM232000 24012G19KT P6SM SCT025 OVC050 PROB30 2320/2324 3SM
      TSRA BKN025CB
     FM240000 23007KT P6SM SCT040 OVC120=

USA.gov is the U.S. government's official web portal to all federal, state and local government web resources and services.